Eckelson, North Dakota
Current Conditions -  °F | °C
As of 1:55 PM on Friday 24 Oct 2014 (Local Time) from KBAC Reporting Station
Clear Clear  
Wind Chill: 72°   Ceiling: Unl
Heat Index: 72°   Visibility: 10mi
Dew Point: 41°   Wind: 16mph
Humidity: 33%   Direction: 280°W
Pressure: 29.81"   Gusts: 22mph
Location:  46.94°N, 98.33°W
Report Text: KBAC 241855Z AUTO 28014G19KT 10SM CLR 22/05 A2981 RMK AO2
Loading
Personal Weather Stations






























Interactive Weather Map
Tropical Storm Tracking
New forecast layout! Learn more

10-Day Weather Forecast

Advertisements
Track Severe Weather on mobile